Time;durP1;ratioP1;P1;durP2;ratioP2;P2;SDS_P1;SDS_P2;PMS_P1;PMS_P2;Temp;Humidity;BMP_temperature;BMP_pressure;BME280_temperature;BME280_humidity;BME280_pressure;Samples;Min_cycle;Max_cycle;Signal;HPM_P1;HPM_P2
2022/09/29 00:00:36;;;;;;;5.40;4.65;;;6.30;99.90;;;;;;5053527;28;20040;-67
2022/09/29 00:03:01;;;;;;;4.47;4.07;;;6.20;99.90;;;;;;5054847;28;20028;-66
2022/09/29 00:05:27;;;;;;;5.72;4.80;;;6.30;99.90;;;;;;5051772;28;20084;-66
2022/09/29 00:07:53;;;;;;;6.82;4.78;;;6.30;99.90;;;;;;5051941;28;20164;-66
2022/09/29 00:10:18;;;;;;;5.00;4.05;;;6.30;99.90;;;;;;5051811;28;20048;-66
2022/09/29 00:12:45;;;;;;;4.35;3.95;;;6.30;99.90;;;;;;5052490;28;20052;-67
2022/09/29 00:15:11;;;;;;;5.03;3.97;;;6.20;99.90;;;;;;5058122;28;20028;-66
2022/09/29 00:17:36;;;;;;;6.70;4.35;;;6.20;99.90;;;;;;5056547;28;20040;-66
2022/09/29 00:20:03;;;;;;;5.60;3.65;;;6.20;99.90;;;;;;5060153;28;20459;-65
2022/09/29 00:22:29;;;;;;;6.00;4.55;;;6.10;99.90;;;;;;5047862;28;20094;-66
2022/09/29 00:24:54;;;;;;;5.18;3.85;;;6.10;99.90;;;;;;5051936;28;20049;-66
2022/09/29 00:27:20;;;;;;;4.60;4.20;;;6.10;99.90;;;;;;5056825;28;20032;-67
2022/09/29 00:29:46;;;;;;;5.85;4.82;;;6.10;99.90;;;;;;5050353;28;20408;-66
2022/09/29 00:32:12;;;;;;;5.82;4.28;;;6.00;99.90;;;;;;5050035;28;20040;-66
2022/09/29 00:34:37;;;;;;;4.35;3.92;;;6.10;99.90;;;;;;5056488;28;20131;-68
2022/09/29 00:37:04;;;;;;;5.93;4.72;;;6.00;99.90;;;;;;5055216;28;20347;-66
2022/09/29 00:39:30;;;;;;;5.00;4.47;;;5.90;99.90;;;;;;5053995;28;20512;-67
2022/09/29 00:41:56;;;;;;;4.88;3.97;;;5.90;99.90;;;;;;5054920;28;20123;-66
2022/09/29 00:44:22;;;;;;;4.57;3.97;;;5.90;99.90;;;;;;5055690;28;20028;-66
2022/09/29 00:46:53;;;;;;;7.55;4.50;;;5.80;99.90;;;;;;5053588;28;20385;-66
2022/09/29 00:49:28;;;;;;;6.80;4.50;;;5.80;99.90;;;;;;5048075;28;20045;-67
2022/09/29 00:52:02;;;;;;;6.55;5.03;;;5.80;99.90;;;;;;5057702;28;20040;-67
2022/09/29 00:54:34;;;;;;;7.60;4.60;;;5.70;99.90;;;;;;5052255;28;20623;-66
2022/09/29 00:57:02;;;;;;;5.45;4.95;;;5.70;99.90;;;;;;5054507;28;20114;-66
2022/09/29 00:59:59;;;;;;;5.40;4.70;;;5.70;99.90;;;;;;5052096;28;20047;-66
2022/09/29 01:02:26;;;;;;;5.38;4.60;;;5.70;99.90;;;;;;5051747;28;20060;-68
2022/09/29 01:04:54;;;;;;;5.18;4.15;;;5.70;99.90;;;;;;5051298;28;20052;-68
2022/09/29 01:07:23;;;;;;;6.80;5.28;;;5.70;99.90;;;;;;5056331;28;20127;-68
2022/09/29 01:09:52;;;;;;;7.53;5.53;;;5.60;99.90;;;;;;5054415;28;20045;-68
2022/09/29 01:12:19;;;;;;;6.78;4.75;;;5.60;99.90;;;;;;5054382;28;20036;-68
2022/09/29 01:14:46;;;;;;;6.22;5.20;;;5.60;99.90;;;;;;5053026;28;20522;-68
2022/09/29 01:17:12;;;;;;;5.38;4.85;;;5.60;99.90;;;;;;5049979;28;20056;-68
2022/09/29 01:20:25;;;;;;;6.80;5.63;;;5.60;99.90;;;;;;5056280;28;20071;-68
2022/09/29 01:23:09;;;;;;;5.28;4.78;;;5.60;99.90;;;;;;4987904;28;20052;-68
2022/09/29 01:26:05;;;;;;;6.30;5.60;;;5.50;99.90;;;;;;5059342;28;20060;-67
2022/09/29 01:29:08;;;;;;;6.22;4.80;;;5.50;99.90;;;;;;5034133;28;20565;-68
2022/09/29 01:32:01;;;;;;;6.78;4.68;;;5.50;99.90;;;;;;5048776;28;20048;-68
2022/09/29 01:34:46;;;;;;;6.13;5.47;;;5.40;99.90;;;;;;5050555;28;20472;-68
2022/09/29 01:37:14;;;;;;;6.82;5.13;;;5.40;99.90;;;;;;5052626;28;20052;-68
2022/09/29 01:40:05;;;;;;;5.53;4.90;;;5.40;99.90;;;;;;5068302;28;20135;-67
2022/09/29 01:42:41;;;;;;;8.77;5.22;;;5.40;99.90;;;;;;5055042;28;20037;-68
2022/09/29 01:45:28;;;;;;;7.68;4.78;;;5.30;99.90;;;;;;5052597;28;20045;-67
2022/09/29 01:48:18;;;;;;;5.93;5.32;;;5.30;99.90;;;;;;5052056;28;20052;-67
2022/09/29 01:50:48;;;;;;;5.93;5.28;;;5.30;99.90;;;;;;5051756;28;20103;-68
2022/09/29 01:53:20;;;;;;;6.15;5.57;;;5.30;99.90;;;;;;5052890;28;20041;-67
2022/09/29 01:55:50;;;;;;;6.63;4.93;;;5.30;99.90;;;;;;5052276;28;20059;-68
2022/09/29 01:58:34;;;;;;;7.32;5.18;;;5.30;99.90;;;;;;5055729;28;20045;-69
2022/09/29 02:01:03;;;;;;;6.85;6.15;;;5.20;99.90;;;;;;5049595;28;20045;-69
2022/09/29 02:03:43;;;;;;;6.15;5.55;;;5.20;99.90;;;;;;5057511;28;20067;-69
2022/09/29 02:06:37;;;;;;;6.15;5.55;;;5.20;99.90;;;;;;5051403;28;20040;-69
2022/09/29 02:09:08;;;;;;;5.65;5.10;;;5.20;99.90;;;;;;5053498;28;20033;-69
2022/09/29 02:11:37;;;;;;;6.40;5.20;;;5.10;99.90;;;;;;5057501;28;20036;-69
2022/09/29 02:14:09;;;;;;;8.98;5.03;;;5.10;99.90;;;;;;5052370;28;20051;-66
2022/09/29 02:16:40;;;;;;;6.25;5.32;;;5.10;99.90;;;;;;5052946;28;20048;-66
2022/09/29 02:19:18;;;;;;;5.82;5.32;;;5.10;99.90;;;;;;5058729;28;20098;-67
2022/09/29 02:21:44;;;;;;;6.15;5.55;;;5.10;99.90;;;;;;5050099;28;20040;-67
2022/09/29 02:24:11;;;;;;;5.90;5.35;;;5.10;99.90;;;;;;5062250;28;20090;-67
2022/09/29 02:26:39;;;;;;;7.65;5.38;;;5.10;99.90;;;;;;5055726;28;20032;-67
2022/09/29 02:29:06;;;;;;;5.63;4.95;;;5.00;99.90;;;;;;5059811;28;20094;-67
2022/09/29 02:31:33;;;;;;;7.43;6.70;;;5.00;99.90;;;;;;5056629;28;20034;-67
2022/09/29 02:34:01;;;;;;;6.20;5.45;;;5.00;99.90;;;;;;5058450;28;20827;-68
2022/09/29 02:37:01;;;;;;;6.82;6.13;;;5.00;99.90;;;;;;5056906;28;20522;-69
2022/09/29 02:40:09;;;;;;;7.97;4.93;;;4.90;99.90;;;;;;5059813;28;20044;-69
2022/09/29 02:42:34;;;;;;;7.57;5.53;;;4.90;99.90;;;;;;5056141;28;20037;-69
2022/09/29 02:45:06;;;;;;;7.63;5.35;;;4.90;99.90;;;;;;5058481;28;20044;-69
2022/09/29 02:48:06;;;;;;;9.38;5.68;;;4.90;99.90;;;;;;5059809;28;20157;-69
2022/09/29 02:50:38;;;;;;;6.35;5.75;;;4.90;99.90;;;;;;5055255;28;20045;-70
2022/09/29 02:53:24;;;;;;;30.15;8.60;;;4.90;99.90;;;;;;5060503;28;20128;-69
2022/09/29 02:56:14;;;;;;;129.10;17.42;;;4.90;99.90;;;;;;5052148;28;20092;-69
2022/09/29 02:58:56;;;;;;;11.90;7.40;;;4.90;99.90;;;;;;5056932;28;20446;-69
2022/09/29 03:01:23;;;;;;;11.40;6.75;;;4.90;99.90;;;;;;5057976;28;20090;-69
2022/09/29 03:03:48;;;;;;;111.07;15.02;;;4.90;99.90;;;;;;5057718;28;20041;-69
2022/09/29 03:06:15;;;;;;;37.58;9.32;;;4.90;99.90;;;;;;5056559;28;20238;-69
2022/09/29 03:08:41;;;;;;;107.95;13.57;;;4.90;99.90;;;;;;5067315;28;20040;-69
2022/09/29 03:11:06;;;;;;;91.15;14.32;;;4.90;99.90;;;;;;5057494;28;20402;-69
2022/09/29 03:13:32;;;;;;;66.78;11.73;;;4.90;99.90;;;;;;5060079;28;20071;-69
2022/09/29 03:15:58;;;;;;;65.85;9.95;;;4.90;99.90;;;;;;5055684;28;20521;-69
2022/09/29 03:18:23;;;;;;;45.47;7.45;;;4.80;99.90;;;;;;5061710;28;20575;-69
2022/09/29 03:20:49;;;;;;;12.20;6.07;;;4.80;99.90;;;;;;5056884;28;20041;-69
2022/09/29 03:23:14;;;;;;;7.63;4.05;;;4.80;99.90;;;;;;5055714;28;20108;-69
2022/09/29 03:25:40;;;;;;;25.38;6.28;;;4.80;99.90;;;;;;5053264;28;20057;-69
2022/09/29 03:28:06;;;;;;;68.72;10.20;;;4.80;99.90;;;;;;5053082;28;20044;-69
2022/09/29 03:30:32;;;;;;;24.35;5.72;;;4.80;99.90;;;;;;5053739;28;20579;-68
2022/09/29 03:32:57;;;;;;;9.55;5.00;;;4.80;99.90;;;;;;5049647;28;20048;-68
2022/09/29 03:35:23;;;;;;;11.07;5.47;;;4.80;99.90;;;;;;5060827;28;20040;-69
2022/09/29 03:37:49;;;;;;;26.40;6.05;;;4.80;99.90;;;;;;5057520;28;20045;-69
2022/09/29 03:40:14;;;;;;;57.33;6.45;;;4.80;99.90;;;;;;5056331;28;20029;-68
2022/09/29 03:42:40;;;;;;;7.65;5.53;;;4.80;99.90;;;;;;5056022;28;20029;-68
2022/09/29 03:45:06;;;;;;;82.93;9.57;;;4.80;99.90;;;;;;5057371;28;20033;-69
2022/09/29 03:47:32;;;;;;;76.57;8.07;;;4.80;99.90;;;;;;5049728;28;20378;-69
2022/09/29 03:49:58;;;;;;;7.97;4.68;;;4.90;99.90;;;;;;5059762;28;20059;-68
2022/09/29 03:52:23;;;;;;;9.88;4.57;;;4.80;99.90;;;;;;5053586;28;20044;-69
2022/09/29 03:54:49;;;;;;;10.93;5.32;;;4.90;99.90;;;;;;5056644;28;20092;-69
2022/09/29 03:57:15;;;;;;;7.85;4.78;;;4.90;99.90;;;;;;5052753;28;20453;-68
2022/09/29 03:59:40;;;;;;;107.82;13.32;;;4.90;99.90;;;;;;5058035;28;20396;-68
2022/09/29 04:02:06;;;;;;;63.15;9.02;;;4.90;99.90;;;;;;5062416;28;20041;-68
2022/09/29 04:04:32;;;;;;;16.25;6.60;;;4.90;99.90;;;;;;5053812;28;20156;-68
2022/09/29 04:06:57;;;;;;;70.93;10.35;;;4.90;99.90;;;;;;5057382;28;20454;-68
2022/09/29 04:09:23;;;;;;;93.13;13.13;;;4.80;99.90;;;;;;5037170;28;20486;-68
2022/09/29 04:11:49;;;;;;;70.40;11.10;;;4.80;99.90;;;;;;5055572;28;20041;-68
2022/09/29 04:14:14;;;;;;;72.72;10.75;;;4.80;99.90;;;;;;5056599;28;20123;-68
2022/09/29 04:16:40;;;;;;;30.63;7.75;;;4.80;99.90;;;;;;5060105;28;20037;-67
2022/09/29 04:19:05;;;;;;;46.60;8.95;;;4.70;99.90;;;;;;5053786;28;20045;-68
2022/09/29 04:21:31;;;;;;;28.38;6.15;;;4.70;99.90;;;;;;5033583;28;20051;-68
2022/09/29 04:23:57;;;;;;;15.65;6.32;;;4.70;99.90;;;;;;5060237;28;20445;-68
2022/09/29 04:26:23;;;;;;;54.70;9.27;;;4.70;99.90;;;;;;5052137;28;20056;-68
2022/09/29 04:28:48;;;;;;;24.08;7.28;;;4.60;99.90;;;;;;5057605;28;20043;-68
2022/09/29 04:31:14;;;;;;;57.35;10.40;;;4.70;99.90;;;;;;5058935;28;20503;-68
2022/09/29 04:33:40;;;;;;;42.92;7.38;;;4.60;99.90;;;;;;5054137;28;20142;-68
2022/09/29 04:36:06;;;;;;;20.48;6.13;;;4.70;99.90;;;;;;5056150;28;20056;-68
2022/09/29 04:38:32;;;;;;;54.25;7.70;;;4.60;99.90;;;;;;5053110;28;20041;-68
2022/09/29 04:40:57;;;;;;;25.33;5.80;;;4.60;99.90;;;;;;5051526;28;20507;-69
2022/09/29 04:43:23;;;;;;;14.15;5.60;;;4.60;99.90;;;;;;5046152;28;20040;-69
2022/09/29 04:45:49;;;;;;;44.55;8.23;;;4.50;99.90;;;;;;5050721;28;20096;-68
2022/09/29 04:48:15;;;;;;;39.08;6.75;;;4.50;99.90;;;;;;5051840;28;20048;-68
2022/09/29 04:50:41;;;;;;;17.63;6.20;;;4.50;99.90;;;;;;5049658;28;20079;-69
2022/09/29 04:53:08;;;;;;;44.20;10.35;;;4.50;99.90;;;;;;5058455;28;20048;-69
2022/09/29 04:55:36;;;;;;;12.32;5.15;;;4.40;99.90;;;;;;5054398;28;20053;-69
2022/09/29 04:58:02;;;;;;;9.43;5.80;;;4.40;99.90;;;;;;5059840;28;20572;-69
2022/09/29 05:00:27;;;;;;;7.10;5.15;;;4.40;99.90;;;;;;5034325;28;20037;-71
2022/09/29 05:02:53;;;;;;;19.33;6.75;;;4.40;99.90;;;;;;5051023;28;20099;-69
2022/09/29 05:05:19;;;;;;;12.05;6.20;;;4.40;99.90;;;;;;5048320;28;20041;-69
2022/09/29 05:07:44;;;;;;;20.17;6.15;;;4.40;99.90;;;;;;5052902;28;20041;-67
2022/09/29 05:10:10;;;;;;;24.45;7.50;;;4.30;99.90;;;;;;5057714;28;20033;-70
2022/09/29 05:12:36;;;;;;;11.85;5.70;;;4.30;99.90;;;;;;5056643;28;20169;-68
2022/09/29 05:15:03;;;;;;;7.30;5.43;;;4.20;99.90;;;;;;5054396;28;20032;-68
2022/09/29 05:17:29;;;;;;;7.30;5.32;;;4.20;99.90;;;;;;5052722;28;20045;-68
2022/09/29 05:19:55;;;;;;;5.43;4.82;;;4.20;99.90;;;;;;5053281;28;20048;-68
2022/09/29 05:22:23;;;;;;;7.13;5.63;;;4.10;99.90;;;;;;5053815;28;20119;-68
2022/09/29 05:24:50;;;;;;;6.28;5.00;;;4.10;99.90;;;;;;5054129;28;20046;-68
2022/09/29 05:27:16;;;;;;;6.63;4.88;;;4.10;99.90;;;;;;5053550;28;20195;-68
2022/09/29 05:29:41;;;;;;;5.28;4.75;;;4.10;99.90;;;;;;5049867;28;20583;-68
2022/09/29 05:32:07;;;;;;;5.55;4.95;;;4.10;99.90;;;;;;5047709;28;20103;-68
2022/09/29 05:34:33;;;;;;;8.68;5.65;;;4.00;99.90;;;;;;5057696;28;20040;-68
2022/09/29 05:36:58;;;;;;;8.70;6.00;;;4.00;99.90;;;;;;5049520;28;20033;-68
2022/09/29 05:39:24;;;;;;;7.13;6.10;;;4.00;99.90;;;;;;5052166;28;20040;-68
2022/09/29 05:41:50;;;;;;;7.65;6.82;;;4.00;99.90;;;;;;5036093;28;20059;-68
2022/09/29 05:44:16;;;;;;;11.90;7.28;;;4.00;99.90;;;;;;5052147;28;20381;-68
2022/09/29 05:46:42;;;;;;;15.35;7.30;;;4.00;99.90;;;;;;5038851;28;20044;-69
2022/09/29 05:49:07;;;;;;;16.13;7.65;;;4.00;99.90;;;;;;5057492;28;20049;-68
2022/09/29 05:51:33;;;;;;;18.05;8.32;;;4.00;99.90;;;;;;5054417;28;20049;-68
2022/09/29 05:54:00;;;;;;;7.82;7.03;;;4.00;99.90;;;;;;5056854;28;20117;-67
2022/09/29 05:56:26;;;;;;;11.82;7.40;;;4.00;99.90;;;;;;5051499;28;20569;-68
2022/09/29 05:58:52;;;;;;;8.88;7.53;;;4.10;99.90;;;;;;5053370;28;20075;-67
2022/09/29 06:01:24;;;;;;;11.38;8.73;;;4.10;99.90;;;;;;5053074;28;20128;-67
2022/09/29 06:03:52;;;;;;;10.65;8.30;;;4.20;99.90;;;;;;5054694;28;20060;-67
2022/09/29 06:06:23;;;;;;;17.98;9.38;;;4.30;99.90;;;;;;5056916;28;20072;-67
2022/09/29 06:08:49;;;;;;;15.20;9.65;;;4.30;99.90;;;;;;5054521;28;20125;-68
2022/09/29 06:11:19;;;;;;;23.00;8.88;;;4.30;99.90;;;;;;5054472;28;20385;-68
2022/09/29 06:13:47;;;;;;;11.00;8.52;;;4.40;99.90;;;;;;5038160;28;20501;-68
2022/09/29 06:16:14;;;;;;;14.82;9.52;;;4.40;99.90;;;;;;5049130;28;20068;-69
2022/09/29 06:18:40;;;;;;;20.45;9.27;;;4.50;99.90;;;;;;5054488;28;20064;-68
2022/09/29 06:21:14;;;;;;;13.35;11.13;;;4.60;99.90;;;;;;5060475;28;20060;-68
2022/09/29 06:23:40;;;;;;;12.25;10.48;;;4.60;99.90;;;;;;5036425;28;20048;-69
2022/09/29 06:26:12;;;;;;;18.90;12.43;;;4.70;99.90;;;;;;5040137;28;20114;-69
2022/09/29 06:28:38;;;;;;;38.63;14.60;;;4.80;99.90;;;;;;5054142;28;20518;-68
2022/09/29 06:31:06;;;;;;;24.75;14.70;;;4.90;99.90;;;;;;5057676;28;20041;-68
2022/09/29 06:33:33;;;;;;;35.47;16.50;;;5.00;99.90;;;;;;5045913;28;20055;-69
2022/09/29 06:38:58;;;;;;;44.88;18.80;;;5.20;99.90;;;;;;5056332;28;20067;-69
2022/09/29 06:55:40;;;;;;;25.02;18.30;;;5.40;99.90;;;;;;5092862;27;20687;-67
2022/09/29 06:58:07;;;;;;;19.58;16.05;;;6.70;99.90;;;;;;5074950;28;20526;-66
2022/09/29 07:00:33;;;;;;;18.70;14.43;;;6.70;99.90;;;;;;5096502;28;20615;-66
2022/09/29 07:02:59;;;;;;;19.05;13.80;;;6.80;99.90;;;;;;5093189;28;20072;-66
2022/09/29 07:05:25;;;;;;;18.70;14.70;;;6.80;99.90;;;;;;5067478;28;20080;-66
2022/09/29 07:07:52;;;;;;;23.25;15.00;;;6.90;99.90;;;;;;5073723;28;20083;-66
2022/09/29 07:10:18;;;;;;;15.63;13.35;;;7.10;99.90;;;;;;5098535;28;20067;-66
2022/09/29 07:12:45;;;;;;;15.85;13.73;;;7.40;99.90;;;;;;5070831;28;20083;-66
2022/09/29 07:15:12;;;;;;;16.02;14.35;;;7.90;99.90;;;;;;5075138;28;20111;-66
2022/09/29 07:17:38;;;;;;;18.52;15.90;;;8.60;99.90;;;;;;5075390;28;20503;-66
2022/09/29 07:20:04;;;;;;;15.25;13.65;;;9.40;99.90;;;;;;5095656;28;20040;-66
2022/09/29 07:22:30;;;;;;;13.80;12.50;;;10.30;99.90;;;;;;5097958;28;20058;-66
2022/09/29 07:24:55;;;;;;;13.50;12.20;;;11.20;99.90;;;;;;5111643;28;20040;-66
2022/09/29 07:27:23;;;;;;;12.48;11.27;;;12.10;99.90;;;;;;5075773;28;20229;-66
2022/09/29 07:29:52;;;;;;;12.52;11.32;;;12.90;99.90;;;;;;5095817;28;20036;-66
2022/09/29 07:32:18;;;;;;;9.48;8.68;;;13.70;99.90;;;;;;5096172;28;20050;-66
2022/09/29 07:34:44;;;;;;;9.73;8.82;;;14.30;99.90;;;;;;5089569;28;20036;-66
2022/09/29 07:37:11;;;;;;;9.00;8.18;;;14.70;99.90;;;;;;5078227;28;20047;-67
2022/09/29 07:39:36;;;;;;;7.97;7.07;;;14.90;99.90;;;;;;5080030;28;20052;-66
2022/09/29 07:42:02;;;;;;;8.80;7.90;;;15.20;99.90;;;;;;5079425;28;20047;-67
2022/09/29 07:44:30;;;;;;;8.10;7.32;;;15.60;99.90;;;;;;5094198;28;20040;-67
2022/09/29 07:46:56;;;;;;;7.10;6.47;;;15.90;99.90;;;;;;5093034;28;20072;-67
2022/09/29 07:49:22;;;;;;;7.28;6.68;;;16.20;99.90;;;;;;5099020;27;20079;-67
2022/09/29 07:51:48;;;;;;;7.65;7.05;;;16.60;99.90;;;;;;5091105;28;20091;-66
2022/09/29 07:54:14;;;;;;;7.72;7.00;;;17.10;99.90;;;;;;5097822;28;20075;-66
2022/09/29 07:56:39;;;;;;;7.05;6.45;;;17.50;99.90;;;;;;5082803;28;20127;-67
2022/09/29 07:59:05;;;;;;;6.95;6.32;;;17.70;99.90;;;;;;5075760;28;20047;-66
2022/09/29 08:01:31;;;;;;;6.82;6.32;;;17.70;99.90;;;;;;5083555;28;20065;-67
2022/09/29 08:03:58;;;;;;;7.05;6.45;;;17.70;99.90;;;;;;5075527;28;20040;-67
2022/09/29 08:06:25;;;;;;;6.47;5.90;;;17.70;99.90;;;;;;5081171;28;20440;-67
2022/09/29 08:08:51;;;;;;;7.35;6.18;;;17.70;99.90;;;;;;5083758;28;20035;-67
2022/09/29 08:11:19;;;;;;;6.55;5.95;;;17.70;99.90;;;;;;5059952;28;20048;-67
2022/09/29 08:13:50;;;;;;;6.47;5.93;;;17.80;99.90;;;;;;5093016;28;20036;-67
2022/09/29 08:16:15;;;;;;;6.97;6.25;;;18.30;99.90;;;;;;5072457;28;20155;-69
2022/09/29 08:18:42;;;;;;;6.43;5.82;;;19.00;99.90;;;;;;5081798;28;20127;-68
2022/09/29 08:21:09;;;;;;;6.68;6.07;;;19.50;99.90;;;;;;5073970;28;20033;-68
2022/09/29 08:23:40;;;;;;;5.97;5.38;;;19.90;99.90;;;;;;5079810;28;20048;-67
2022/09/29 08:26:08;;;;;;;6.20;5.60;;;20.10;98.20;;;;;;5077047;28;20412;-67
2022/09/29 08:28:36;;;;;;;6.60;6.10;;;19.90;98.30;;;;;;5076475;28;20089;-68
2022/09/29 08:31:13;;;;;;;6.13;5.53;;;19.70;97.90;;;;;;5078347;28;20097;-67
2022/09/29 08:33:39;;;;;;;5.93;4.80;;;19.60;97.60;;;;;;5078562;28;20036;-67
2022/09/29 08:36:13;;;;;;;5.55;4.95;;;20.00;97.70;;;;;;5075385;28;20117;-67
2022/09/29 08:38:43;;;;;;;5.10;4.70;;;20.40;97.20;;;;;;5077608;28;20047;-68
2022/09/29 08:41:34;;;;;;;5.50;5.00;;;21.00;96.80;;;;;;5077027;28;20044;-68
2022/09/29 08:44:06;;;;;;;6.05;5.40;;;21.20;92.50;;;;;;5083121;28;20040;-68
2022/09/29 08:46:48;;;;;;;5.45;5.00;;;21.00;93.80;;;;;;5076222;28;20075;-68
2022/09/29 08:49:24;;;;;;;5.85;5.35;;;21.10;93.50;;;;;;5075406;28;20123;-68
2022/09/29 08:51:54;;;;;;;6.15;4.55;;;21.40;91.60;;;;;;5074224;28;20044;-68
2022/09/29 08:54:26;;;;;;;5.38;4.93;;;21.60;92.20;;;;;;5077532;28;20560;-67
2022/09/29 08:56:52;;;;;;;4.88;4.57;;;21.60;90.70;;;;;;5076706;28;20044;-68
2022/09/29 08:59:17;;;;;;;4.93;4.43;;;21.70;89.60;;;;;;5077142;28;20052;-68
2022/09/29 09:01:55;;;;;;;5.57;5.07;;;22.00;90.50;;;;;;5071829;28;20036;-68
2022/09/29 09:04:31;;;;;;;4.35;3.97;;;22.70;87.60;;;;;;5080179;28;20574;-68
2022/09/29 09:07:19;;;;;;;4.93;4.38;;;23.10;88.90;;;;;;5078534;28;20044;-68
2022/09/29 09:10:09;;;;;;;4.63;4.22;;;23.60;85.50;;;;;;5075806;28;20643;-68
2022/09/29 09:12:54;;;;;;;4.75;4.10;;;23.80;79.00;;;;;;5074618;28;20110;-68
2022/09/29 09:15:59;;;;;;;3.88;3.53;;;24.00;80.60;;;;;;5076692;28;20455;-68
2022/09/29 09:18:43;;;;;;;4.32;3.92;;;24.10;75.50;;;;;;5074873;28;20041;-68
2022/09/29 09:21:31;;;;;;;4.10;3.40;;;23.90;75.60;;;;;;5082041;28;20095;-68
2022/09/29 09:24:08;;;;;;;4.43;3.83;;;24.10;72.10;;;;;;5081874;28;20040;-68
2022/09/29 09:26:42;;;;;;;3.58;3.28;;;24.10;75.10;;;;;;5078577;28;20044;-68
2022/09/29 09:29:14;;;;;;;3.75;3.20;;;24.30;74.40;;;;;;5073180;28;20035;-68
2022/09/29 09:31:48;;;;;;;3.78;3.40;;;24.70;76.10;;;;;;5076567;28;20568;-68
2022/09/29 09:34:17;;;;;;;3.08;2.85;;;25.10;72.10;;;;;;5092297;28;20048;-68
2022/09/29 09:36:59;;;;;;;3.55;3.10;;;25.40;72.30;;;;;;5074199;28;20091;-68
2022/09/29 09:39:39;;;;;;;3.95;3.47;;;25.50;69.40;;;;;;5075763;28;20055;-68
2022/09/29 09:42:14;;;;;;;3.65;3.30;;;25.70;69.10;;;;;;5076993;28;20064;-68
2022/09/29 09:45:04;;;;;;;3.55;3.28;;;25.70;68.40;;;;;;5078066;28;20048;-67
2022/09/29 09:48:14;;;;;;;3.42;2.88;;;25.40;67.30;;;;;;5075224;28;20125;-68
2022/09/29 09:50:41;;;;;;;3.25;2.90;;;24.80;63.30;;;;;;5041948;28;20049;-68
2022/09/29 09:53:19;;;;;;;3.90;3.13;;;24.60;67.00;;;;;;5077596;28;20043;-65
2022/09/29 09:56:00;;;;;;;2.60;2.40;;;24.70;67.70;;;;;;5080775;28;20048;-67
2022/09/29 09:58:32;;;;;;;2.95;2.45;;;24.60;68.30;;;;;;5075228;28;20070;-67
2022/09/29 10:01:05;;;;;;;3.50;3.08;;;24.80;66.80;;;;;;5080274;28;20036;-68
2022/09/29 10:03:32;;;;;;;3.40;3.10;;;24.90;68.30;;;;;;5079856;28;20048;-67
2022/09/29 10:05:58;;;;;;;3.65;3.00;;;24.90;67.40;;;;;;5081621;28;20050;-68
2022/09/29 10:08:29;;;;;;;4.13;3.10;;;24.80;66.20;;;;;;5078171;28;20036;-68
2022/09/29 10:10:57;;;;;;;3.83;2.83;;;25.00;69.00;;;;;;5080858;28;20087;-68
2022/09/29 10:13:30;;;;;;;3.00;2.47;;;25.20;68.20;;;;;;5073462;28;20036;-68
2022/09/29 10:16:12;;;;;;;3.17;2.92;;;24.80;66.00;;;;;;5078837;28;20036;-68
2022/09/29 10:18:51;;;;;;;3.30;2.80;;;24.40;66.80;;;;;;5076430;28;20048;-68
2022/09/29 10:21:35;;;;;;;3.55;2.72;;;24.00;66.20;;;;;;5079055;28;20032;-68
2022/09/29 10:24:03;;;;;;;3.78;3.03;;;24.20;68.50;;;;;;5080324;28;20041;-68
2022/09/29 10:26:28;;;;;;;2.88;2.50;;;24.40;68.70;;;;;;5078848;28;20051;-68
2022/09/29 10:28:57;;;;;;;4.28;2.58;;;24.50;70.10;;;;;;5076151;28;20053;-68
2022/09/29 10:31:37;;;;;;;2.90;2.25;;;24.70;67.90;;;;;;5072654;28;20375;-69
2022/09/29 10:34:23;;;;;;;2.47;1.92;;;24.90;67.00;;;;;;5077119;28;20036;-69
2022/09/29 10:37:03;;;;;;;2.80;1.70;;;24.90;67.90;;;;;;5080431;28;20529;-68
2022/09/29 10:39:29;;;;;;;1.98;1.20;;;24.90;62.50;;;;;;5079837;28;20108;-68
2022/09/29 10:41:55;;;;;;;2.08;0.95;;;24.50;65.50;;;;;;5077370;28;20382;-68
2022/09/29 10:44:21;;;;;;;2.35;0.70;;;24.40;68.00;;;;;;5077496;28;20108;-68
2022/09/29 10:46:54;;;;;;;2.05;0.70;;;24.90;66.70;;;;;;5080095;28;20077;-65
2022/09/29 10:49:23;;;;;;;1.15;0.70;;;24.90;62.20;;;;;;5078503;28;20482;-66
2022/09/29 10:51:54;;;;;;;2.25;0.77;;;24.60;62.50;;;;;;5073417;28;20566;-66
2022/09/29 10:54:24;;;;;;;2.70;0.82;;;23.80;63.10;;;;;;5078945;28;20044;-66
2022/09/29 10:56:51;;;;;;;1.75;0.60;;;23.50;65.50;;;;;;5076969;28;20047;-65
2022/09/29 10:59:18;;;;;;;2.80;0.80;;;23.20;66.90;;;;;;5083005;28;20070;-65
2022/09/29 11:01:50;;;;;;;1.88;0.90;;;22.60;65.20;;;;;;5076524;28;20036;-66
2022/09/29 11:04:39;;;;;;;1.80;0.75;;;22.30;65.20;;;;;;5079887;28;20047;-66
2022/09/29 11:07:11;;;;;;;1.20;0.60;;;22.40;66.70;;;;;;5079032;28;20047;-66
2022/09/29 11:09:43;;;;;;;1.33;0.68;;;22.80;68.10;;;;;;5077126;28;20040;-68
2022/09/29 11:12:38;;;;;;;1.92;1.00;;;23.30;65.20;;;;;;5074825;28;20483;-68
2022/09/29 11:15:25;;;;;;;1.50;0.82;;;23.50;65.20;;;;;;5078985;28;20048;-68
2022/09/29 11:17:52;;;;;;;1.33;1.13;;;23.90;66.50;;;;;;5074909;28;20036;-69
2022/09/29 11:20:19;;;;;;;1.70;1.00;;;24.30;63.00;;;;;;5080172;28;20125;-67
2022/09/29 11:23:18;;;;;;;1.58;0.90;;;24.60;62.90;;;;;;5073540;28;20569;-67
2022/09/29 11:25:55;;;;;;;1.10;0.80;;;24.70;60.30;;;;;;5078890;28;20115;-67
2022/09/29 11:28:42;;;;;;;0.90;0.70;;;24.90;63.70;;;;;;5076806;28;20466;-67
2022/09/29 11:31:27;;;;;;;1.52;0.80;;;25.40;59.50;;;;;;5081412;28;20553;-67
2022/09/29 11:34:28;;;;;;;1.48;0.98;;;25.70;59.60;;;;;;5080702;28;20044;-67
2022/09/29 11:37:13;;;;;;;1.77;0.90;;;26.10;57.10;;;;;;5081975;28;20430;-67
2022/09/29 11:39:59;;;;;;;2.15;1.10;;;26.00;58.60;;;;;;5080807;28;20510;-67
2022/09/29 11:42:25;;;;;;;1.92;0.70;;;26.10;57.60;;;;;;5078682;28;20479;-67
2022/09/29 11:44:59;;;;;;;2.40;0.90;;;26.20;56.50;;;;;;5080215;28;20111;-67
2022/09/29 11:47:33;;;;;;;1.58;0.70;;;26.20;56.60;;;;;;5077552;28;20473;-67
2022/09/29 11:50:38;;;;;;;1.00;0.60;;;26.20;54.00;;;;;;5080932;28;20047;-67
2022/09/29 11:53:31;;;;;;;0.98;0.40;;;25.60;54.80;;;;;;5063123;28;20267;-67
2022/09/29 11:56:02;;;;;;;1.25;0.50;;;25.40;55.70;;;;;;5043937;28;20084;-66
2022/09/29 11:58:54;;;;;;;0.93;0.60;;;25.30;53.20;;;;;;5043706;28;20033;-66
2022/09/29 12:01:34;;;;;;;1.45;0.43;;;25.10;55.80;;;;;;5046412;28;20036;-66
2022/09/29 12:04:31;;;;;;;1.02;0.70;;;25.00;55.70;;;;;;5042236;28;20076;-66
2022/09/29 12:07:06;;;;;;;0.70;0.38;;;25.20;56.40;;;;;;5048610;28;20033;-66
2022/09/29 12:09:55;;;;;;;1.02;0.70;;;25.30;55.10;;;;;;5050200;28;20626;-66
2022/09/29 12:12:26;;;;;;;0.95;0.57;;;25.60;52.40;;;;;;5044682;28;20051;-66
2022/09/29 12:14:52;;;;;;;1.05;0.60;;;25.80;53.10;;;;;;5044019;28;20037;-66
2022/09/29 12:17:19;;;;;;;0.90;0.60;;;25.60;54.40;;;;;;5040556;28;20052;-67
2022/09/29 12:20:01;;;;;;;1.50;0.88;;;24.70;55.40;;;;;;5044528;28;20037;-66
2022/09/29 12:22:28;;;;;;;0.80;0.50;;;23.90;55.20;;;;;;5043393;28;20060;-66
2022/09/29 12:24:58;;;;;;;2.13;0.70;;;22.60;57.50;;;;;;5044857;28;20748;-66
2022/09/29 12:27:41;;;;;;;1.15;0.70;;;21.70;61.00;;;;;;5042405;28;20042;-66
2022/09/29 12:30:21;;;;;;;0.80;0.50;;;22.00;61.00;;;;;;5041953;28;20068;-66
2022/09/29 12:32:57;;;;;;;1.92;0.80;;;21.40;62.00;;;;;;5042632;28;20087;-66
2022/09/29 12:35:28;;;;;;;1.58;0.70;;;20.70;62.50;;;;;;5043239;28;20048;-66
2022/09/29 12:38:16;;;;;;;1.05;0.60;;;19.80;64.10;;;;;;5049095;28;20137;-66
2022/09/29 12:41:17;;;;;;;1.23;0.60;;;19.00;65.40;;;;;;5046004;28;20387;-66
2022/09/29 12:44:13;;;;;;;1.45;0.52;;;18.30;68.30;;;;;;5041368;28;20404;-66
2022/09/29 12:46:54;;;;;;;1.48;0.82;;;17.90;70.80;;;;;;5042905;28;20038;-66
2022/09/29 12:49:37;;;;;;;0.70;0.50;;;18.80;69.40;;;;;;5038556;28;20064;-66
2022/09/29 12:52:14;;;;;;;1.65;0.50;;;18.50;67.90;;;;;;5044696;28;20064;-66
2022/09/29 12:54:45;;;;;;;1.45;0.50;;;18.80;68.70;;;;;;5055954;28;20403;-66
2022/09/29 12:57:17;;;;;;;3.00;0.57;;;20.00;66.60;;;;;;5078138;28;20103;-66
2022/09/29 13:00:03;;;;;;;0.50;0.38;;;21.20;64.50;;;;;;5078702;28;20055;-65
2022/09/29 13:02:44;;;;;;;1.67;0.38;;;22.50;62.20;;;;;;5075747;28;20052;-66
2022/09/29 13:05:23;;;;;;;1.15;0.22;;;23.10;59.30;;;;;;5073488;28;20048;-66
2022/09/29 13:07:56;;;;;;;1.15;0.20;;;22.90;59.40;;;;;;5081557;28;20202;-66
2022/09/29 13:10:36;;;;;;;1.35;0.20;;;22.00;58.60;;;;;;5074249;28;20380;-65
2022/09/29 13:13:28;;;;;;;0.40;0.35;;;21.00;59.90;;;;;;5077492;28;20044;-66
2022/09/29 13:16:02;;;;;;;0.85;0.40;;;20.80;62.20;;;;;;5075347;28;20055;-66
2022/09/29 13:18:56;;;;;;;1.35;0.50;;;21.40;60.50;;;;;;5075175;28;20032;-66
2022/09/29 13:21:50;;;;;;;0.65;0.30;;;21.80;59.40;;;;;;5076249;28;20476;-66
2022/09/29 13:24:42;;;;;;;0.90;0.40;;;22.10;63.50;;;;;;5075967;28;20107;-65
2022/09/29 13:27:26;;;;;;;1.15;0.50;;;22.00;62.50;;;;;;5078953;28;20153;-65
2022/09/29 13:30:11;;;;;;;1.25;0.55;;;22.00;61.30;;;;;;5077073;28;20036;-65
2022/09/29 13:32:45;;;;;;;3.00;0.70;;;21.70;62.20;;;;;;5079988;28;20111;-65